createdAt,value
2023-02-11T00:03:45.740Z,23.10
2023-02-11T00:08:48.784Z,23.80
2023-02-11T00:13:51.971Z,21.90
2023-02-11T00:18:55.063Z,21.60
2023-02-11T00:23:59.865Z,21.40
2023-02-11T00:29:03.220Z,20.70
2023-02-11T00:34:06.134Z,19.80
2023-02-11T00:39:10.126Z,22.10
2023-02-11T00:44:13.044Z,20.20
2023-02-11T00:49:16.074Z,18.90
2023-02-11T00:54:19.034Z,18.90
2023-02-11T00:59:21.919Z,19.40
2023-02-11T01:04:24.819Z,19.20
2023-02-11T01:09:27.875Z,19.20
2023-02-11T01:14:30.757Z,18.20
2023-02-11T01:19:33.802Z,17.70
2023-02-11T01:24:36.778Z,18.20
2023-02-11T01:29:39.718Z,16.50
2023-02-11T01:34:42.763Z,16.60
2023-02-11T01:39:45.728Z,16.30
2023-02-11T01:44:52.977Z,17.10
2023-02-11T01:49:59.256Z,16.40
2023-02-11T01:55:30.832Z,16.90
2023-02-11T02:00:36.800Z,16.30
2023-02-11T02:06:07.626Z,14.50
2023-02-11T02:11:10.758Z,15.30
2023-02-11T02:16:16.386Z,14.80
2023-02-11T02:21:38.349Z,13.80
2023-02-11T02:27:39.506Z,14.50
2023-02-11T02:33:16.714Z,13.70
2023-02-11T02:39:04.347Z,14.60
2023-02-11T02:44:07.860Z,13.80
2023-02-11T02:49:14.510Z,13.20
2023-02-11T02:54:36.014Z,13.10
2023-02-11T03:00:07.803Z,13.00
2023-02-11T03:05:37.338Z,14.00
2023-02-11T03:10:49.750Z,12.50
2023-02-11T03:15:55.278Z,13.40
2023-02-11T03:20:58.719Z,14.30
2023-02-11T03:26:30.818Z,12.90
2023-02-11T03:32:07.729Z,11.80
2023-02-11T03:37:16.575Z,11.60
2023-02-11T03:42:19.982Z,13.00
2023-02-11T03:47:24.955Z,11.80
2023-02-11T03:52:28.051Z,13.00
2023-02-11T03:57:31.277Z,12.60
2023-02-11T04:02:35.981Z,12.60
2023-02-11T04:07:38.945Z,12.90
2023-02-11T04:13:01.842Z,13.10
2023-02-11T04:18:04.884Z,13.40
2023-02-11T04:23:08.011Z,15.10
2023-02-11T04:28:10.919Z,14.90
2023-02-11T04:33:13.832Z,15.60
2023-02-11T04:38:16.940Z,16.40
2023-02-11T04:43:19.799Z,15.10
2023-02-11T04:48:22.788Z,16.80
2023-02-11T04:53:25.815Z,15.90
2023-02-11T04:58:28.798Z,15.00
2023-02-11T05:03:31.732Z,17.70
2023-02-11T05:08:34.701Z,16.90
2023-02-11T05:13:37.667Z,18.50
2023-02-11T05:18:41.935Z,18.90
2023-02-11T05:23:45.361Z,17.20
2023-02-11T05:28:48.338Z,17.70
2023-02-11T05:33:51.220Z,18.20
2023-02-11T05:38:54.464Z,18.10
2023-02-11T05:43:57.378Z,18.30
2023-02-11T05:49:00.257Z,16.20
2023-02-11T05:54:03.839Z,15.20
2023-02-11T05:59:06.838Z,17.30
2023-02-11T06:04:09.702Z,16.30
2023-02-11T06:09:12.663Z,18.50
2023-02-11T06:14:15.611Z,18.60
2023-02-11T06:19:20.091Z,15.10
2023-02-11T06:24:47.788Z,19.60
2023-02-11T06:29:48.209Z,19.00
2023-02-11T06:34:51.120Z,18.70
2023-02-11T06:39:53.977Z,20.30
2023-02-11T06:44:56.861Z,18.60
2023-02-11T06:49:59.786Z,21.20
2023-02-11T06:55:02.736Z,22.10
2023-02-11T07:00:06.434Z,20.10
2023-02-11T07:05:09.669Z,21.20
2023-02-11T07:10:12.722Z,22.20
2023-02-11T07:15:15.885Z,21.10
2023-02-11T07:20:19.016Z,21.80
2023-02-11T07:25:21.892Z,19.70
2023-02-11T07:30:24.759Z,23.40
2023-02-11T07:35:27.801Z,24.00
2023-02-11T07:40:31.759Z,24.70
2023-02-11T07:45:34.626Z,25.10
2023-02-11T07:50:37.470Z,25.90
2023-02-11T07:55:40.506Z,23.70
2023-02-11T08:00:43.675Z,25.90
2023-02-11T08:05:46.574Z,26.70
2023-02-11T08:10:49.655Z,26.70
2023-02-11T08:15:53.041Z,24.40
2023-02-11T08:20:56.175Z,25.90
2023-02-11T08:26:04.531Z,25.20
2023-02-11T08:31:40.673Z,27.10
2023-02-11T08:36:45.072Z,29.10
2023-02-11T08:41:50.083Z,26.80
2023-02-11T08:46:53.173Z,30.80
2023-02-11T08:51:56.573Z,27.90
2023-02-11T08:57:00.796Z,27.60
2023-02-11T09:02:03.765Z,25.10
2023-02-11T09:07:08.762Z,27.90
2023-02-11T09:12:11.610Z,27.50
2023-02-11T09:17:14.569Z,29.10
2023-02-11T09:22:17.462Z,27.70
2023-02-11T09:27:20.321Z,26.10
2023-02-11T09:32:23.316Z,26.40
2023-02-11T09:37:26.239Z,25.80
2023-02-11T09:42:38.607Z,26.00
2023-02-11T09:48:12.320Z,25.30
2023-02-11T09:53:27.883Z,24.60
2023-02-11T09:58:35.713Z,26.90
2023-02-11T10:03:47.624Z,26.20
2023-02-11T10:09:09.733Z,26.00
2023-02-11T10:15:03.899Z,28.70
2023-02-11T10:21:09.712Z,27.20
2023-02-11T10:26:15.557Z,28.50
2023-02-11T10:31:38.582Z,24.50
2023-02-11T10:36:44.616Z,26.80
2023-02-11T10:42:10.943Z,24.70
2023-02-11T10:47:20.540Z,24.60
2023-02-11T10:52:28.370Z,23.10
2023-02-11T10:57:42.814Z,22.90
2023-02-11T11:02:47.147Z,25.20
2023-02-11T11:07:59.156Z,25.70
2023-02-11T11:13:02.140Z,26.30
2023-02-11T11:18:22.409Z,25.30
2023-02-11T11:23:26.083Z,28.70
2023-02-11T11:28:29.932Z,26.80
2023-02-11T11:33:34.446Z,28.60
2023-02-11T11:38:44.450Z,29.30
2023-02-11T11:43:58.149Z,27.00
2023-02-11T11:49:29.338Z,32.20
2023-02-11T11:54:32.667Z,29.70
2023-02-11T11:59:37.204Z,34.60
2023-02-11T12:04:54.192Z,31.80
2023-02-11T12:10:34.488Z,30.90
2023-02-11T12:16:13.941Z,32.40
2023-02-11T12:21:55.205Z,30.10
2023-02-11T12:28:08.165Z,28.90
2023-02-11T12:34:07.775Z,28.50
2023-02-11T12:39:41.627Z,28.10
2023-02-11T12:44:50.295Z,25.20
2023-02-11T12:55:27.185Z,28.60
2023-02-11T13:00:51.181Z,30.40
2023-02-11T13:05:58.171Z,29.60
2023-02-11T13:11:08.479Z,27.60
2023-02-11T13:16:50.944Z,25.00
2023-02-11T13:22:33.853Z,25.60
2023-02-11T13:27:44.690Z,28.30
2023-02-11T13:33:19.362Z,30.80
2023-02-11T13:38:24.791Z,28.90
2023-02-11T13:43:28.928Z,31.60
2023-02-11T13:48:59.638Z,27.30
2023-02-11T13:54:02.537Z,26.30
2023-02-11T13:59:25.740Z,32.20
2023-02-11T14:04:49.070Z,34.00
2023-02-11T14:09:57.071Z,32.90
2023-02-11T14:15:07.829Z,33.90
2023-02-11T14:20:42.045Z,31.60
2023-02-11T14:25:45.088Z,33.10
2023-02-11T14:31:04.573Z,33.50
2023-02-11T14:36:14.021Z,30.30
2023-02-11T14:41:29.887Z,33.20
2023-02-11T14:46:33.238Z,28.00
2023-02-11T14:51:41.900Z,30.90
2023-02-11T14:56:46.912Z,29.20
2023-02-11T15:01:51.365Z,26.60
2023-02-11T15:06:54.377Z,28.10
2023-02-11T15:11:57.385Z,27.90
2023-02-11T15:17:03.749Z,29.70
2023-02-11T15:22:30.341Z,27.80
2023-02-11T15:27:49.045Z,25.90
2023-02-11T15:32:59.778Z,26.90
2023-02-11T15:38:02.791Z,26.70
2023-02-11T15:43:11.276Z,27.50
2023-02-11T15:48:20.484Z,25.70
2023-02-11T15:53:32.549Z,25.50
2023-02-11T15:58:39.676Z,26.90
2023-02-11T16:03:42.730Z,24.30
2023-02-11T16:09:00.336Z,24.60
2023-02-11T16:14:23.275Z,25.60
2023-02-11T16:19:27.865Z,23.80
2023-02-11T16:24:35.179Z,22.50
2023-02-11T16:29:38.213Z,24.20
2023-02-11T16:34:41.258Z,23.80
2023-02-11T16:39:44.438Z,22.70
2023-02-11T16:44:47.284Z,21.20
2023-02-11T16:49:50.317Z,20.50
2023-02-11T16:54:53.857Z,21.10
2023-02-11T16:59:57.535Z,20.60
2023-02-11T17:05:02.539Z,20.50
2023-02-11T17:10:21.819Z,20.00
2023-02-11T17:15:25.033Z,19.80
2023-02-11T17:20:28.550Z,20.60
2023-02-11T17:25:31.607Z,20.30
2023-02-11T17:30:34.677Z,17.90
2023-02-11T17:35:40.655Z,16.60
2023-02-11T17:40:43.569Z,19.90
2023-02-11T17:45:46.562Z,19.00
2023-02-11T17:50:49.497Z,18.50
2023-02-11T17:55:52.721Z,19.40
2023-02-11T18:00:58.988Z,18.50
2023-02-11T18:06:04.313Z,17.40
2023-02-11T18:11:10.519Z,16.40
2023-02-11T18:16:15.994Z,17.80
2023-02-11T18:21:20.483Z,17.00
2023-02-11T18:26:26.269Z,16.30
2023-02-11T18:31:29.470Z,17.80
2023-02-11T18:36:32.400Z,16.90
2023-02-11T18:41:35.318Z,16.50
2023-02-11T18:46:38.161Z,15.00
2023-02-11T18:51:41.078Z,15.30
2023-02-11T18:56:44.038Z,14.40
2023-02-11T19:01:47.094Z,15.40
2023-02-11T19:06:50.347Z,14.10
2023-02-11T19:11:57.989Z,16.30
2023-02-11T19:17:04.054Z,14.70
2023-02-11T19:22:10.068Z,12.90
2023-02-11T19:27:13.537Z,12.20
2023-02-11T19:32:17.594Z,11.10
2023-02-11T19:37:20.554Z,10.80
2023-02-11T19:42:25.316Z,10.70
2023-02-11T19:47:31.372Z,9.40
2023-02-11T19:52:37.020Z,9.60
2023-02-11T19:57:39.965Z,9.20
2023-02-11T20:02:43.031Z,10.00
2023-02-11T20:07:45.995Z,9.20
2023-02-11T20:12:49.086Z,9.90
2023-02-11T20:17:51.963Z,9.50
2023-02-11T20:22:54.870Z,9.20
2023-02-11T20:27:57.908Z,8.90
2023-02-11T20:33:00.749Z,9.60
2023-02-11T20:38:04.242Z,8.70
2023-02-11T20:43:07.148Z,8.50
2023-02-11T20:48:10.110Z,8.50
2023-02-11T20:53:13.254Z,9.10
2023-02-11T20:58:16.164Z,9.80
2023-02-11T21:03:19.019Z,10.20
2023-02-11T21:08:21.848Z,10.40
2023-02-11T21:13:25.209Z,7.80
2023-02-11T21:18:28.209Z,9.20
2023-02-11T21:23:31.147Z,8.80
2023-02-11T21:28:34.432Z,3.80
2023-02-11T21:33:38.009Z,3.30
2023-02-11T21:38:41.465Z,2.80
2023-02-11T21:43:44.809Z,2.80
2023-02-11T21:48:48.068Z,2.10
2023-02-11T21:54:01.559Z,2.30
2023-02-11T21:59:04.613Z,2.00
2023-02-11T22:04:07.535Z,2.00
2023-02-11T22:09:11.132Z,1.90
2023-02-11T22:14:14.004Z,1.60
2023-02-11T22:19:17.362Z,1.40
2023-02-11T22:24:20.284Z,1.40
2023-02-11T22:29:23.147Z,2.00
2023-02-11T22:34:26.082Z,1.90
2023-02-11T22:39:31.588Z,1.60
2023-02-11T22:44:34.722Z,2.20
2023-02-11T22:49:39.640Z,1.90
2023-02-11T22:54:42.720Z,1.40
2023-02-11T22:59:48.046Z,1.80
2023-02-11T23:04:50.971Z,1.20
2023-02-11T23:09:54.251Z,1.10
2023-02-11T23:14:57.225Z,0.80
2023-02-11T23:20:00.442Z,1.00
2023-02-11T23:25:03.363Z,1.20
2023-02-11T23:30:07.600Z,1.80
2023-02-11T23:35:10.617Z,1.70
2023-02-11T23:40:14.472Z,1.30
2023-02-11T23:45:17.578Z,1.10
2023-02-11T23:50:21.304Z,0.90
2023-02-11T23:55:24.225Z,1.30
